Time;durP1;ratioP1;P1;durP2;ratioP2;P2;SDS_P1;SDS_P2;PMS_P1;PMS_P2;Temp;Humidity;BMP_temperature;BMP_pressure;BME280_temperature;BME280_humidity;BME280_pressure;Samples;Min_cycle;Max_cycle;Signal;HPM_P1;HPM_P2
2022/05/21 03:01:43;;;;;;;7.00;2.40;;;19.70;99.90;;;;;;5749996;22;89723;-80
2022/05/21 03:04:09;;;;;;;6.50;1.40;;;19.50;99.90;;;;;;4960342;28;88762;-80
2022/05/21 03:06:36;;;;;;;6.07;1.13;;;19.50;99.90;;;;;;4954068;28;87184;-80
2022/05/21 03:11:48;;;;;;;2.45;1.05;;;19.70;99.90;;;;;;4960287;28;86742;-79
2022/05/21 03:14:14;;;;;;;6.30;1.58;;;19.50;99.90;;;;;;4967445;28;86790;-78
2022/05/21 03:16:40;;;;;;;4.38;1.40;;;19.30;99.90;;;;;;4968121;28;86674;-78
2022/05/21 03:19:05;;;;;;;3.85;1.48;;;19.40;99.90;;;;;;4966526;28;86076;-76
2022/05/21 03:21:31;;;;;;;4.40;1.98;;;19.30;99.90;;;;;;4965957;28;86819;-77
2022/05/21 03:23:58;;;;;;;4.50;1.92;;;19.10;99.90;;;;;;4964937;28;86704;-77
2022/05/21 03:26:24;;;;;;;4.90;1.80;;;19.30;99.90;;;;;;4965035;28;87605;-77
2022/05/21 03:28:50;;;;;;;4.60;1.75;;;19.20;99.90;;;;;;4967822;28;87040;-80
2022/05/21 03:31:16;;;;;;;4.35;1.80;;;19.10;99.90;;;;;;4968517;28;87087;-80
2022/05/21 03:33:42;;;;;;;6.28;1.80;;;19.10;99.90;;;;;;4969667;28;87818;-80
2022/05/21 03:36:08;;;;;;;5.57;2.15;;;19.00;99.90;;;;;;4969269;28;86900;-78
2022/05/21 03:38:34;;;;;;;5.68;1.77;;;18.90;99.90;;;;;;4968379;28;86316;-81
2022/05/21 03:41:00;;;;;;;5.30;2.20;;;19.00;99.90;;;;;;4969791;28;86615;-83
2022/05/21 03:43:26;;;;;;;4.72;2.05;;;19.10;99.90;;;;;;4969565;28;88067;-83
2022/05/21 03:45:52;;;;;;;5.75;2.10;;;19.20;99.90;;;;;;4970068;28;86603;-83
2022/05/21 03:48:18;;;;;;;6.57;2.20;;;19.20;99.90;;;;;;4969516;28;86699;-82
2022/05/21 03:50:44;;;;;;;5.07;1.95;;;19.10;99.90;;;;;;4972236;28;88447;-80
2022/05/21 03:53:10;;;;;;;5.90;2.05;;;18.90;99.90;;;;;;4971929;28;88704;-80
2022/05/21 03:55:37;;;;;;;5.55;1.83;;;18.90;99.90;;;;;;4971762;28;86677;-79
2022/05/21 03:58:04;;;;;;;4.70;2.05;;;18.90;99.90;;;;;;4970737;28;86739;-79
2022/05/21 04:00:30;;;;;;;4.25;2.00;;;18.80;99.90;;;;;;4969780;28;87752;-79
2022/05/21 04:02:57;;;;;;;7.07;2.20;;;18.90;99.90;;;;;;4968584;28;87102;-78
2022/05/21 04:05:23;;;;;;;3.25;1.77;;;19.00;99.90;;;;;;4972346;28;85946;-80
2022/05/21 04:07:49;;;;;;;3.40;1.65;;;19.00;99.90;;;;;;4973873;28;85939;-80
2022/05/21 04:10:16;;;;;;;5.80;2.15;;;19.00;99.90;;;;;;4972132;28;87842;-80
2022/05/21 04:12:42;;;;;;;5.72;2.45;;;19.00;99.90;;;;;;4969052;28;86821;-80
2022/05/21 04:15:09;;;;;;;6.57;2.70;;;19.00;99.90;;;;;;4971182;28;87737;-80
2022/05/21 04:17:35;;;;;;;7.22;2.63;;;18.90;99.90;;;;;;4970485;28;86629;-83
2022/05/21 04:20:06;;;;;;;6.45;2.80;;;18.70;99.90;;;;;;4955916;28;90876;-83
2022/05/21 04:22:33;;;;;;;5.53;2.08;;;18.70;99.90;;;;;;4972138;28;87023;-83
2022/05/21 04:24:59;;;;;;;4.30;1.98;;;18.70;99.90;;;;;;4951157;28;86809;-81
2022/05/21 04:27:24;;;;;;;4.07;1.90;;;18.70;99.90;;;;;;4950309;28;86748;-81
2022/05/21 04:29:50;;;;;;;6.57;2.33;;;18.80;99.90;;;;;;4967948;28;86834;-81
2022/05/21 04:32:16;;;;;;;9.32;2.47;;;18.80;99.90;;;;;;4967859;28;86150;-82
2022/05/21 04:34:42;;;;;;;4.90;2.10;;;18.80;99.90;;;;;;4967140;28;86701;-82
2022/05/21 04:37:07;;;;;;;8.27;2.97;;;18.50;99.90;;;;;;4967786;28;86900;-81
2022/05/21 04:39:33;;;;;;;4.35;1.85;;;18.30;99.90;;;;;;4971566;28;88141;-81
2022/05/21 04:42:00;;;;;;;3.70;1.95;;;18.20;99.90;;;;;;4974191;28;87147;-81
2022/05/21 04:44:31;;;;;;;5.22;2.05;;;18.10;99.90;;;;;;4954788;28;86773;-81
2022/05/21 04:46:58;;;;;;;6.93;2.20;;;18.10;99.90;;;;;;4967692;28;86826;-82
2022/05/21 04:49:24;;;;;;;5.20;2.13;;;18.10;99.90;;;;;;4966638;28;86657;-83
2022/05/21 04:51:50;;;;;;;5.85;1.85;;;18.10;99.90;;;;;;4967250;28;86999;-82
2022/05/21 04:54:16;;;;;;;4.70;1.90;;;18.30;99.90;;;;;;4967793;28;86713;-82
2022/05/21 04:56:41;;;;;;;3.15;1.85;;;18.40;99.90;;;;;;4971592;28;86271;-82
2022/05/21 04:59:08;;;;;;;3.10;1.33;;;18.30;99.90;;;;;;4970903;28;87028;-82
2022/05/21 05:01:34;;;;;;;6.53;1.90;;;18.40;99.90;;;;;;4968479;28;86815;-77
2022/05/21 05:04:00;;;;;;;7.45;2.40;;;18.70;99.90;;;;;;4967347;28;87756;-77
2022/05/21 05:06:25;;;;;;;4.05;2.00;;;19.00;99.90;;;;;;4967933;28;86827;-78
2022/05/21 05:08:51;;;;;;;4.80;1.55;;;18.80;99.90;;;;;;4967195;28;87054;-78
2022/05/21 05:11:17;;;;;;;8.45;2.15;;;19.20;99.90;;;;;;4967440;28;86955;-78
2022/05/21 05:13:42;;;;;;;5.10;1.83;;;19.20;99.90;;;;;;4967617;28;86632;-78
2022/05/21 05:16:08;;;;;;;4.78;1.73;;;19.10;99.90;;;;;;4967716;28;87055;-78
2022/05/21 05:18:34;;;;;;;5.05;1.55;;;19.10;99.90;;;;;;4967027;28;87125;-77
2022/05/21 05:21:01;;;;;;;5.60;2.20;;;19.20;99.90;;;;;;4967316;28;87670;-78
2022/05/21 05:23:27;;;;;;;4.85;1.90;;;19.10;99.90;;;;;;4967347;28;86369;-78
2022/05/21 05:25:53;;;;;;;4.68;2.20;;;19.10;99.90;;;;;;4967415;28;86918;-78
2022/05/21 05:28:23;;;;;;;6.88;1.20;;;19.50;99.90;;;;;;4967007;28;87709;-78
2022/05/21 05:30:49;;;;;;;4.72;2.28;;;20.10;99.90;;;;;;4967659;28;88088;-78
2022/05/21 05:33:18;;;;;;;5.13;2.13;;;20.10;99.90;;;;;;4968104;28;86749;-78
2022/05/21 05:35:44;;;;;;;4.70;2.60;;;19.80;99.90;;;;;;4967466;28;86278;-78
2022/05/21 05:38:12;;;;;;;5.25;1.88;;;19.50;99.90;;;;;;4967693;28;86809;-78
2022/05/21 05:40:41;;;;;;;5.75;2.03;;;19.20;99.90;;;;;;4967263;28;87087;-78
2022/05/21 05:43:07;;;;;;;3.38;1.33;;;19.50;99.90;;;;;;4967244;28;86682;-78
2022/05/21 05:45:33;;;;;;;3.83;1.52;;;19.90;99.90;;;;;;4970051;28;86102;-78
2022/05/21 05:47:58;;;;;;;7.25;2.97;;;20.20;99.90;;;;;;4971213;28;87305;-78
2022/05/21 05:50:24;;;;;;;6.40;2.08;;;20.20;99.90;;;;;;4967653;28;86834;-78
2022/05/21 05:52:50;;;;;;;4.63;1.83;;;19.90;99.90;;;;;;4967376;28;87644;-78
2022/05/21 05:55:16;;;;;;;6.35;2.22;;;19.60;99.90;;;;;;4967830;28;86863;-78
2022/05/21 05:57:42;;;;;;;3.72;1.70;;;19.30;99.90;;;;;;4969707;28;87253;-78
2022/05/21 06:00:09;;;;;;;4.63;2.38;;;19.00;99.90;;;;;;4970558;28;87132;-78
2022/05/21 06:05:22;;;;;;;4.53;1.85;;;19.00;99.90;;;;;;4969417;28;86327;-78
2022/05/21 06:07:57;;;;;;;7.03;1.40;;;19.00;99.90;;;;;;4967120;28;87255;-78
2022/05/21 06:10:26;;;;;;;4.32;1.70;;;19.20;99.90;;;;;;4967361;28;86184;-78
2022/05/21 06:12:52;;;;;;;4.88;1.63;;;19.20;99.90;;;;;;4967346;28;86672;-78
2022/05/21 06:15:18;;;;;;;3.65;1.80;;;19.30;99.90;;;;;;4967220;28;86700;-78
2022/05/21 06:17:44;;;;;;;4.32;1.55;;;19.50;99.90;;;;;;4966071;28;87666;-78
2022/05/21 06:20:14;;;;;;;3.95;2.10;;;19.60;99.90;;;;;;4967146;28;87259;-78
2022/05/21 06:22:41;;;;;;;5.05;1.70;;;19.50;99.90;;;;;;4967398;28;86745;-78
2022/05/21 06:25:08;;;;;;;3.78;1.73;;;19.70;99.90;;;;;;4967216;28;86312;-77
2022/05/21 06:27:34;;;;;;;3.38;1.52;;;20.00;99.90;;;;;;4967561;28;86699;-78
2022/05/21 06:30:00;;;;;;;6.50;2.15;;;19.90;99.90;;;;;;4967331;28;87727;-78
2022/05/21 06:32:25;;;;;;;3.67;1.73;;;19.60;99.90;;;;;;4967443;28;86679;-78
2022/05/21 06:34:51;;;;;;;4.93;1.58;;;19.80;99.90;;;;;;4967832;28;86277;-78
2022/05/21 06:37:17;;;;;;;5.32;1.90;;;20.10;99.90;;;;;;4967004;28;87527;-79
2022/05/21 06:39:43;;;;;;;4.32;2.13;;;20.30;99.90;;;;;;4952631;28;88442;-78
2022/05/21 06:42:10;;;;;;;4.40;1.83;;;20.10;99.90;;;;;;4947128;28;87254;-78
2022/05/21 06:44:35;;;;;;;20.73;2.15;;;19.90;99.90;;;;;;4946174;28;87039;-82
2022/05/21 06:47:02;;;;;;;4.60;1.83;;;19.80;99.90;;;;;;4946261;28;86844;-79
2022/05/21 06:49:28;;;;;;;4.82;1.50;;;19.70;99.90;;;;;;4947210;28;87328;-79
2022/05/21 06:51:55;;;;;;;4.63;1.95;;;19.50;99.90;;;;;;4947310;28;86670;-78
2022/05/21 06:54:23;;;;;;;6.82;2.22;;;19.30;99.90;;;;;;4948077;28;87043;-79
2022/05/21 06:56:48;;;;;;;5.28;1.75;;;19.20;99.90;;;;;;4947178;28;88161;-78
2022/05/21 06:59:15;;;;;;;6.63;1.80;;;19.30;99.90;;;;;;4947525;28;86202;-79
2022/05/21 07:01:42;;;;;;;4.38;1.90;;;19.30;99.90;;;;;;4946435;28;86828;-79
2022/05/21 07:04:08;;;;;;;4.75;2.05;;;19.30;99.90;;;;;;4945861;28;86771;-79
2022/05/21 07:09:20;;;;;;;3.65;1.60;;;19.50;99.90;;;;;;4945330;28;86811;-79
2022/05/21 07:11:48;;;;;;;5.47;2.05;;;19.60;99.90;;;;;;4947817;28;86349;-79
2022/05/21 07:14:14;;;;;;;3.30;1.52;;;19.70;99.90;;;;;;4946925;28;86869;-78
2022/05/21 07:16:40;;;;;;;3.70;1.98;;;19.60;99.90;;;;;;4944674;28;86768;-79
2022/05/21 07:19:07;;;;;;;3.63;1.85;;;19.30;99.90;;;;;;4946046;28;88112;-78
2022/05/21 07:21:33;;;;;;;5.13;2.42;;;19.40;99.90;;;;;;4946617;28;86633;-82
2022/05/21 07:23:59;;;;;;;5.80;1.88;;;19.50;99.90;;;;;;4946905;28;85723;-79
2022/05/21 07:26:25;;;;;;;3.97;2.13;;;19.40;99.90;;;;;;4946500;28;86718;-79
2022/05/21 07:28:51;;;;;;;4.63;2.08;;;19.40;99.90;;;;;;4946073;28;86450;-79
2022/05/21 07:31:17;;;;;;;4.75;1.70;;;19.40;99.90;;;;;;4946677;28;87539;-79
2022/05/21 07:33:42;;;;;;;4.07;1.27;;;19.50;99.90;;;;;;4946128;28;86834;-82
2022/05/21 07:36:09;;;;;;;5.43;2.45;;;20.10;99.90;;;;;;4946204;28;88210;-82
2022/05/21 07:38:50;;;;;;;4.57;1.92;;;20.70;99.90;;;;;;4945699;28;86730;-82
2022/05/21 07:41:16;;;;;;;3.75;1.40;;;20.60;99.90;;;;;;4945702;28;86724;-82
2022/05/21 07:43:42;;;;;;;3.33;1.15;;;20.90;99.80;;;;;;4945898;28;86299;-83
2022/05/21 07:46:07;;;;;;;3.50;0.73;;;21.10;95.40;;;;;;4945610;28;87676;-82
2022/05/21 07:48:33;;;;;;;6.47;1.05;;;21.00;94.30;;;;;;4946151;28;86959;-82
2022/05/21 07:51:02;;;;;;;3.28;0.82;;;21.10;92.80;;;;;;4946256;28;86842;-83
2022/05/21 07:53:32;;;;;;;2.28;0.75;;;21.20;93.20;;;;;;4928289;28;86696;-82
2022/05/21 07:55:58;;;;;;;1.83;0.60;;;21.30;92.40;;;;;;4945960;28;87542;-82
2022/05/21 07:58:27;;;;;;;2.67;0.80;;;21.10;91.60;;;;;;4944877;28;88189;-83
2022/05/21 08:00:54;;;;;;;3.03;0.50;;;21.10;91.90;;;;;;4946692;28;86683;-82
2022/05/21 08:03:20;;;;;;;2.50;0.65;;;21.10;90.90;;;;;;4945163;28;89466;-82
2022/05/21 08:05:46;;;;;;;2.58;0.73;;;21.00;91.50;;;;;;4944765;28;87243;-83
2022/05/21 08:08:12;;;;;;;3.88;1.02;;;21.20;91.60;;;;;;4927348;28;86868;-83
2022/05/21 08:10:40;;;;;;;2.03;0.82;;;21.20;91.40;;;;;;4926205;28;86856;-82
2022/05/21 08:13:06;;;;;;;3.67;0.90;;;21.40;92.00;;;;;;4928023;28;85368;-83
2022/05/21 08:15:33;;;;;;;3.65;0.52;;;21.80;91.60;;;;;;4928371;28;87139;-82
2022/05/21 08:18:00;;;;;;;3.42;0.70;;;21.90;88.70;;;;;;4929365;28;86705;-82
2022/05/21 08:20:27;;;;;;;4.03;0.73;;;22.10;87.80;;;;;;4929079;28;87357;-83
2022/05/21 08:28:21;;;;;;;4.30;0.55;;;22.70;78.70;;;;;;4928129;28;86641;-83
2022/05/21 08:30:48;;;;;;;2.25;0.60;;;23.00;79.40;;;;;;4929154;28;86642;-83
2022/05/21 08:33:16;;;;;;;4.07;0.65;;;23.20;78.10;;;;;;4928912;28;86818;-83
2022/05/21 08:35:42;;;;;;;2.65;0.60;;;22.90;77.80;;;;;;4927906;28;86768;-83
2022/05/21 08:38:10;;;;;;;3.50;1.02;;;23.20;75.80;;;;;;4929172;28;86984;-83
2022/05/21 08:40:44;;;;;;;2.92;0.65;;;23.20;74.90;;;;;;4929673;28;86625;-83
2022/05/21 08:43:40;;;;;;;4.15;0.73;;;23.10;73.70;;;;;;4929463;28;86678;-83
2022/05/21 08:46:07;;;;;;;2.65;0.70;;;23.10;73.50;;;;;;4928477;28;88517;-83
2022/05/21 08:48:34;;;;;;;1.55;0.57;;;23.00;74.40;;;;;;4928488;28;87859;-83
2022/05/21 08:51:06;;;;;;;1.98;0.60;;;22.90;73.50;;;;;;4928784;28;86820;-83
2022/05/21 08:53:32;;;;;;;1.85;0.55;;;23.30;71.30;;;;;;4929227;28;86693;-83
2022/05/21 08:56:00;;;;;;;2.50;0.73;;;23.90;69.40;;;;;;4929241;28;88188;-83
2022/05/21 08:58:34;;;;;;;2.13;0.88;;;24.20;67.90;;;;;;4930124;28;86882;-83
2022/05/21 09:01:00;;;;;;;1.75;0.63;;;24.00;67.80;;;;;;4935341;28;86832;-83
2022/05/21 09:03:26;;;;;;;3.20;0.65;;;24.20;70.40;;;;;;4932809;28;86092;-83
2022/05/21 09:06:42;;;;;;;5.72;0.60;;;24.40;68.70;;;;;;4931492;28;87504;-83
2022/05/21 09:09:31;;;;;;;4.85;0.63;;;24.50;68.40;;;;;;4932150;28;86704;-83
2022/05/21 09:11:59;;;;;;;;;;;23.90;68.20;;;;;;4933205;28;87423;-83
2022/05/21 09:14:41;;;;;;;5.07;0.93;;;23.60;67.40;;;;;;4936814;28;87048;-83
2022/05/21 09:17:23;;;;;;;6.90;1.42;;;22.90;68.20;;;;;;4936837;28;86534;-83
2022/05/21 09:19:49;;;;;;;2.97;1.00;;;22.90;70.10;;;;;;4939347;28;87493;-83
2022/05/21 09:22:18;;;;;;;2.45;0.88;;;24.10;69.40;;;;;;4930811;28;86642;-83
2022/05/21 09:24:52;;;;;;;2.05;0.73;;;24.80;65.40;;;;;;4929812;28;86934;-83
2022/05/21 09:27:27;;;;;;;2.20;0.68;;;25.40;65.70;;;;;;4929643;28;87194;-83
2022/05/21 09:30:13;;;;;;;3.70;1.40;;;26.10;62.20;;;;;;4930359;28;87828;-84
2022/05/21 09:32:40;;;;;;;4.72;1.23;;;27.20;59.20;;;;;;4930923;28;86816;-84
2022/05/21 09:35:23;;;;;;;6.03;0.90;;;28.10;55.40;;;;;;4932438;28;86859;-83
2022/05/21 09:37:49;;;;;;;2.75;0.85;;;27.30;58.50;;;;;;4930778;28;87783;-83
2022/05/21 09:40:36;;;;;;;2.55;0.93;;;26.40;57.20;;;;;;4929787;28;88128;-83
2022/05/21 09:46:30;;;;;;;3.25;1.17;;;25.10;61.20;;;;;;4942397;28;86866;-82
2022/05/21 09:49:15;;;;;;;3.47;2.70;;;24.40;64.80;;;;;;4944439;28;87117;-83
2022/05/21 09:51:41;;;;;;;2.20;0.90;;;24.40;63.50;;;;;;4937507;28;86911;-83
2022/05/21 09:54:25;;;;;;;3.03;1.35;;;24.30;63.30;;;;;;4935052;28;86601;-83
2022/05/21 09:56:53;;;;;;;2.85;1.00;;;24.20;63.00;;;;;;4935224;28;85930;-83
2022/05/21 09:59:22;;;;;;;4.13;1.02;;;24.30;65.20;;;;;;4934461;28;87523;-83
2022/05/21 10:01:54;;;;;;;5.00;0.90;;;24.50;63.70;;;;;;4931933;28;86907;-84
2022/05/21 10:04:48;;;;;;;2.45;1.17;;;25.40;61.80;;;;;;4931845;28;87881;-83
2022/05/21 10:13:47;;;;;;;2.72;1.17;;;26.20;61.10;;;;;;4918922;28;88558;-83
2022/05/21 10:16:45;;;;;;;3.40;1.02;;;27.30;57.10;;;;;;4932084;28;86680;-83
2022/05/21 10:19:26;;;;;;;2.33;1.20;;;27.10;56.40;;;;;;4931958;28;86694;-83
2022/05/21 10:22:33;;;;;;;3.58;1.15;;;27.10;54.80;;;;;;4931239;28;87645;-83
2022/05/21 10:25:04;;;;;;;3.20;1.20;;;26.30;57.60;;;;;;4919393;28;87233;-83
2022/05/21 10:27:51;;;;;;;2.92;0.80;;;26.10;59.50;;;;;;4931243;28;86828;-83
2022/05/21 10:30:30;;;;;;;3.25;1.00;;;26.00;58.80;;;;;;4931798;28;87012;-83
2022/05/21 10:33:01;;;;;;;2.83;0.93;;;25.90;59.90;;;;;;4930520;28;88676;-83
2022/05/21 10:35:48;;;;;;;2.40;1.35;;;26.00;59.30;;;;;;4930036;28;87285;-83
2022/05/21 10:38:38;;;;;;;3.00;1.38;;;25.90;60.90;;;;;;4931587;28;86706;-83
2022/05/21 10:41:12;;;;;;;3.88;1.42;;;26.20;62.60;;;;;;4930981;28;86771;-83
2022/05/21 10:44:10;;;;;;;3.78;1.17;;;26.60;58.50;;;;;;4931737;28;88171;-83
2022/05/21 10:46:57;;;;;;;4.25;2.40;;;26.80;57.60;;;;;;4931050;28;86843;-83
2022/05/21 10:49:44;;;;;;;2.65;1.30;;;25.50;60.00;;;;;;4930113;28;86416;-83
2022/05/21 10:52:35;;;;;;;5.00;2.17;;;25.50;61.80;;;;;;4931065;28;85850;-83
2022/05/21 10:55:04;;;;;;;4.57;1.63;;;25.90;60.70;;;;;;4930314;28;87361;-83
2022/05/21 10:57:42;;;;;;;7.30;3.08;;;26.00;61.30;;;;;;4929622;28;86819;-83
2022/05/21 11:00:37;;;;;;;2.95;1.13;;;26.10;59.60;;;;;;4929523;28;87754;-83
2022/05/21 11:03:24;;;;;;;3.55;1.35;;;26.40;61.30;;;;;;4921114;28;86830;-83
2022/05/21 11:06:20;;;;;;;7.10;1.70;;;25.90;59.30;;;;;;4930070;28;88161;-83
2022/05/21 11:09:06;;;;;;;2.10;0.98;;;26.10;60.30;;;;;;4929437;28;89506;-83
2022/05/21 11:12:03;;;;;;;3.90;0.95;;;26.10;60.30;;;;;;4925356;28;86192;-83
2022/05/21 11:14:49;;;;;;;2.20;1.35;;;26.20;60.30;;;;;;4931415;28;86560;-81
2022/05/21 11:17:36;;;;;;;2.78;1.27;;;25.70;63.60;;;;;;4933545;28;87687;-81
2022/05/21 11:20:27;;;;;;;3.72;1.15;;;25.30;63.60;;;;;;4944169;28;87537;-83
2022/05/21 11:23:20;;;;;;;3.45;1.30;;;25.50;63.00;;;;;;4940139;28;87099;-81
2022/05/21 11:26:01;;;;;;;5.82;2.22;;;25.80;62.90;;;;;;4945252;28;86722;-81
2022/05/21 11:28:45;;;;;;;4.55;2.10;;;26.10;60.60;;;;;;4946775;28;88566;-81
2022/05/21 11:37:19;;;;;;;5.05;1.67;;;26.40;61.20;;;;;;4943986;28;87095;-81
2022/05/21 11:39:40;;;;;;;3.45;1.65;;;26.20;60.40;;;;;;4932266;28;87329;-81
2022/05/21 11:42:06;;;;;;;4.10;1.38;;;26.30;62.10;;;;;;4931653;28;86827;-80
2022/05/21 11:47:22;;;;;;;3.53;1.60;;;25.80;59.10;;;;;;4927165;28;85960;-78
2022/05/21 11:50:13;;;;;;;3.95;1.65;;;24.80;62.60;;;;;;4926278;28;86836;-78
2022/05/21 11:52:38;;;;;;;4.95;1.55;;;24.80;62.20;;;;;;4934342;28;86660;-78
2022/05/21 11:55:19;;;;;;;3.45;1.48;;;24.60;63.30;;;;;;4953472;28;86915;-78
2022/05/21 11:58:00;;;;;;;3.60;1.40;;;25.10;62.40;;;;;;4959525;28;86729;-78
2022/05/21 12:00:26;;;;;;;4.65;1.70;;;25.70;60.60;;;;;;4951292;28;86683;-78
2022/05/21 12:02:56;;;;;;;3.30;1.38;;;25.90;58.90;;;;;;4953281;28;87081;-78
2022/05/21 12:05:51;;;;;;;5.28;1.35;;;26.40;59.00;;;;;;4952328;28;86904;-78
2022/05/21 12:08:23;;;;;;;3.95;2.50;;;26.70;59.50;;;;;;4946459;28;86882;-79
2022/05/21 12:11:04;;;;;;;5.93;1.30;;;27.00;57.50;;;;;;4934690;28;87564;-79
2022/05/21 12:13:33;;;;;;;4.85;1.70;;;27.40;56.50;;;;;;4935602;28;87086;-79
2022/05/21 12:15:59;;;;;;;2.92;1.27;;;27.20;57.70;;;;;;4931967;28;86861;-78
2022/05/21 12:18:52;;;;;;;3.78;2.10;;;27.40;58.20;;;;;;4931659;28;86942;-78
2022/05/21 12:21:35;;;;;;;5.40;1.60;;;27.10;56.20;;;;;;4934835;28;87779;-79
2022/05/21 12:24:25;;;;;;;7.35;2.88;;;26.10;59.70;;;;;;4969813;28;87281;-79
2022/05/21 12:27:11;;;;;;;8.23;2.10;;;25.80;62.00;;;;;;4974563;28;86813;-79
2022/05/21 12:29:46;;;;;;;7.45;1.80;;;25.10;61.10;;;;;;4952699;28;86883;-79
2022/05/21 12:32:23;;;;;;;3.25;1.55;;;25.10;59.10;;;;;;4955182;28;87409;-79
2022/05/21 12:35:06;;;;;;;4.65;1.92;;;25.30;62.20;;;;;;4955836;28;87248;-79
2022/05/21 12:37:42;;;;;;;8.35;1.88;;;25.80;60.00;;;;;;4950409;28;86920;-85
2022/05/21 12:40:29;;;;;;;3.58;1.73;;;25.50;61.00;;;;;;4955153;28;85994;-82
2022/05/21 12:43:06;;;;;;;3.15;1.88;;;25.30;61.70;;;;;;4958508;28;86664;-80
2022/05/21 12:45:43;;;;;;;4.10;1.70;;;25.60;63.30;;;;;;4958872;28;87950;-81
2022/05/21 12:48:16;;;;;;;6.22;2.20;;;25.90;61.70;;;;;;4952381;28;87825;-81
2022/05/21 12:51:04;;;;;;;3.80;1.70;;;25.70;63.00;;;;;;4957964;28;87035;-80
2022/05/21 12:53:39;;;;;;;3.70;1.77;;;25.90;60.90;;;;;;4965733;28;86738;-80
2022/05/21 12:56:15;;;;;;;3.38;2.38;;;25.90;61.60;;;;;;4948266;28;86951;-80
2022/05/21 12:58:41;;;;;;;3.05;1.77;;;25.90;61.00;;;;;;4944076;28;87526;-80
2022/05/21 13:01:06;;;;;;;3.78;1.52;;;25.80;60.70;;;;;;4945616;28;86962;-80
2022/05/21 13:03:34;;;;;;;5.25;1.58;;;25.60;61.50;;;;;;4945411;28;88265;-80
2022/05/21 13:06:03;;;;;;;4.28;1.60;;;25.30;61.90;;;;;;4945196;28;87301;-80
2022/05/21 13:08:31;;;;;;;5.03;1.73;;;25.50;61.60;;;;;;4942731;28;86815;-80
2022/05/21 13:11:20;;;;;;;5.28;1.65;;;25.70;61.70;;;;;;4944619;28;87073;-80
2022/05/21 13:14:00;;;;;;;4.13;1.88;;;25.70;62.40;;;;;;4942081;28;87733;-80
2022/05/21 13:16:27;;;;;;;3.83;1.50;;;25.80;59.50;;;;;;4943181;28;88777;-80
2022/05/21 13:19:05;;;;;;;4.43;2.67;;;25.60;60.20;;;;;;4947450;28;86694;-80
2022/05/21 13:21:34;;;;;;;3.50;1.60;;;25.70;60.90;;;;;;4947843;28;86698;-80
2022/05/21 13:24:25;;;;;;;6.32;1.75;;;25.90;60.70;;;;;;4947498;28;87669;-80
2022/05/21 13:27:13;;;;;;;4.57;1.73;;;25.60;60.60;;;;;;4944993;28;86924;-80
2022/05/21 13:29:40;;;;;;;6.30;2.50;;;25.40;60.60;;;;;;4947327;28;86809;-80
2022/05/21 13:32:27;;;;;;;4.88;2.10;;;25.20;61.00;;;;;;4946372;28;86097;-80
2022/05/21 13:35:01;;;;;;;5.43;2.08;;;25.30;60.60;;;;;;4945669;28;87066;-80
2022/05/21 13:37:33;;;;;;;6.03;1.88;;;25.30;61.40;;;;;;4934659;28;87278;-80
2022/05/21 13:40:22;;;;;;;5.40;1.90;;;25.50;60.40;;;;;;4933292;28;87755;-80
2022/05/21 13:42:50;;;;;;;5.60;1.95;;;25.40;60.30;;;;;;4941934;28;86742;-80
2022/05/21 13:45:25;;;;;;;4.05;2.00;;;25.50;59.60;;;;;;4952280;28;88096;-80
2022/05/21 13:47:59;;;;;;;5.75;1.92;;;25.40;61.20;;;;;;4950823;28;87843;-80
2022/05/21 13:50:29;;;;;;;5.80;2.25;;;24.90;62.00;;;;;;4953629;28;86702;-81
2022/05/21 13:52:54;;;;;;;;;;;24.70;61.90;;;;;;4954562;28;86891;-80
2022/05/21 13:55:20;;;;;;;5.22;1.80;;;24.40;65.30;;;;;;4955909;28;88234;-80
2022/05/21 13:57:46;;;;;;;3.83;2.13;;;24.50;63.40;;;;;;4941258;28;86111;-80
2022/05/21 14:00:20;;;;;;;4.90;2.25;;;24.50;63.90;;;;;;4935201;28;86821;-80
2022/05/21 14:02:50;;;;;;;4.72;2.20;;;24.80;64.10;;;;;;4947481;28;87078;-80
2022/05/21 14:05:35;;;;;;;;;;;25.10;62.60;;;;;;4952540;28;88180;-80
2022/05/21 14:08:07;;;;;;;5.80;1.80;;;24.60;62.10;;;;;;4951905;28;87855;-80
2022/05/21 14:10:38;;;;;;;5.07;1.95;;;24.40;64.60;;;;;;4953344;28;86604;-80
2022/05/21 14:13:06;;;;;;;4.43;1.67;;;24.70;63.60;;;;;;4954121;28;87156;-80
2022/05/21 14:15:43;;;;;;;4.40;2.28;;;24.80;61.60;;;;;;4953524;28;87219;-80
2022/05/21 14:18:11;;;;;;;3.33;1.70;;;25.00;62.40;;;;;;4944578;28;86810;-80
2022/05/21 14:20:38;;;;;;;5.07;1.73;;;25.20;62.80;;;;;;4954015;28;86700;-80
2022/05/21 14:23:27;;;;;;;3.58;1.60;;;25.40;61.30;;;;;;4954745;28;86306;-80
2022/05/21 14:26:19;;;;;;;5.10;1.83;;;25.20;60.70;;;;;;4952876;28;86724;-80
2022/05/21 14:28:46;;;;;;;3.22;1.42;;;25.00;61.10;;;;;;4957797;28;86805;-80
2022/05/21 14:31:27;;;;;;;3.63;1.63;;;25.00;61.90;;;;;;4959195;28;87300;-80
2022/05/21 14:34:00;;;;;;;5.97;1.65;;;25.10;62.40;;;;;;4959119;28;86785;-79
2022/05/21 14:36:35;;;;;;;4.30;1.67;;;25.10;60.10;;;;;;4954195;28;86909;-80
2022/05/21 14:39:01;;;;;;;4.28;1.55;;;24.90;60.90;;;;;;4953846;28;88353;-79
2022/05/21 14:41:33;;;;;;;7.85;1.73;;;24.60;61.40;;;;;;4952288;28;86711;-79
2022/05/21 14:44:01;;;;;;;4.55;1.60;;;24.50;61.20;;;;;;4953295;28;86711;-79
2022/05/21 14:49:12;;;;;;;4.05;1.50;;;24.60;62.30;;;;;;4954610;28;86018;-80
2022/05/21 14:54:29;;;;;;;5.40;1.40;;;24.80;59.20;;;;;;4960324;28;86764;-79
2022/05/21 14:56:56;;;;;;;6.22;1.48;;;24.70;60.30;;;;;;4958111;28;88273;-79
2022/05/21 14:59:21;;;;;;;4.40;1.45;;;24.70;59.40;;;;;;4957447;28;87141;-79
2022/05/21 15:01:47;;;;;;;4.30;1.83;;;24.80;59.70;;;;;;4951071;28;86664;-79
2022/05/21 15:04:13;;;;;;;6.28;1.35;;;24.70;60.00;;;;;;4952663;28;86761;-79
2022/05/21 15:06:40;;;;;;;4.10;1.63;;;24.90;61.00;;;;;;4951504;28;87087;-79
2022/05/21 15:09:07;;;;;;;3.33;1.35;;;24.90;58.80;;;;;;4951614;28;88935;-79
2022/05/21 15:11:34;;;;;;;7.35;1.45;;;24.80;58.00;;;;;;4951611;28;86736;-79
2022/05/21 15:13:59;;;;;;;5.53;1.65;;;24.90;59.00;;;;;;4951435;28;85972;-79
2022/05/21 15:16:25;;;;;;;4.70;1.55;;;25.20;59.60;;;;;;4951710;28;87721;-79
2022/05/21 15:18:51;;;;;;;4.00;1.60;;;25.30;58.30;;;;;;4950749;28;86730;-79
2022/05/21 15:21:20;;;;;;;3.92;1.02;;;25.20;56.40;;;;;;4951008;28;87578;-79
2022/05/21 15:23:46;;;;;;;3.88;1.60;;;24.90;57.40;;;;;;4950882;28;87087;-79
2022/05/21 15:26:12;;;;;;;4.28;2.00;;;24.70;58.70;;;;;;4951585;28;86887;-79
2022/05/21 15:28:39;;;;;;;3.80;1.23;;;24.60;59.00;;;;;;4951106;28;86929;-79
2022/05/21 15:31:06;;;;;;;3.42;1.17;;;24.70;59.50;;;;;;4951079;28;86520;-79
2022/05/21 15:33:33;;;;;;;3.28;1.48;;;24.80;58.70;;;;;;4950330;28;86690;-79
2022/05/21 15:35:59;;;;;;;5.90;1.63;;;25.00;58.20;;;;;;4950297;28;87077;-79
2022/05/21 15:38:25;;;;;;;3.92;1.40;;;24.90;57.70;;;;;;4949917;28;86947;-79
2022/05/21 15:40:53;;;;;;;6.95;1.52;;;24.90;58.20;;;;;;4950497;28;86777;-79
2022/05/21 15:43:19;;;;;;;7.50;1.33;;;24.90;58.30;;;;;;4949724;28;86570;-79
2022/05/21 15:45:46;;;;;;;5.85;1.50;;;25.00;57.70;;;;;;4949901;28;88018;-79
2022/05/21 15:48:12;;;;;;;4.13;1.05;;;25.10;57.10;;;;;;4950069;28;88209;-79
2022/05/21 15:50:40;;;;;;;6.15;1.48;;;25.30;57.50;;;;;;4949408;28;86923;-79
2022/05/21 15:53:07;;;;;;;3.00;1.42;;;24.80;57.90;;;;;;4949340;28;86892;-79
2022/05/21 15:55:35;;;;;;;7.25;1.98;;;24.50;58.00;;;;;;4948250;28;88115;-78
2022/05/21 15:58:01;;;;;;;4.65;1.65;;;24.30;57.30;;;;;;4948983;28;88325;-78
2022/05/21 16:00:28;;;;;;;3.53;1.33;;;24.20;58.40;;;;;;4949733;28;86246;-79
2022/05/21 16:02:54;;;;;;;3.00;1.40;;;24.50;59.60;;;;;;4949157;28;86186;-79
2022/05/21 16:05:20;;;;;;;5.72;1.50;;;24.50;58.60;;;;;;4949477;28;87761;-79
2022/05/21 16:07:46;;;;;;;4.28;1.65;;;24.50;58.20;;;;;;4949127;28;86738;-78
2022/05/21 16:10:13;;;;;;;5.03;1.50;;;24.50;60.70;;;;;;4948992;28;87770;-79
2022/05/21 16:12:39;;;;;;;8.20;1.83;;;24.50;57.90;;;;;;4949647;28;86751;-79
2022/05/21 16:15:07;;;;;;;6.53;1.52;;;24.30;59.60;;;;;;4949919;28;86734;-79
2022/05/21 16:17:33;;;;;;;6.03;1.73;;;24.20;58.30;;;;;;4948428;28;86818;-79
2022/05/21 16:19:59;;;;;;;3.42;1.52;;;24.00;59.20;;;;;;4948647;28;86811;-79
2022/05/21 16:22:27;;;;;;;4.45;1.50;;;24.10;59.30;;;;;;4952289;28;86750;-78
2022/05/21 16:24:53;;;;;;;4.68;1.88;;;24.00;59.00;;;;;;4954149;28;87249;-78
2022/05/21 16:27:24;;;;;;;5.03;1.77;;;24.00;59.70;;;;;;4950342;28;87062;-78
2022/05/21 16:29:57;;;;;;;7.07;1.83;;;24.00;59.50;;;;;;4948867;28;86793;-78
2022/05/21 16:32:24;;;;;;;6.07;1.75;;;24.10;60.80;;;;;;4948492;28;86685;-78
2022/05/21 16:34:52;;;;;;;6.20;1.88;;;24.20;58.20;;;;;;4948001;28;87788;-79
2022/05/21 16:37:18;;;;;;;3.75;1.80;;;24.40;58.60;;;;;;4948048;28;88215;-79
2022/05/21 16:39:44;;;;;;;3.80;1.20;;;24.40;57.40;;;;;;4948317;28;86833;-78
2022/05/21 16:42:12;;;;;;;5.30;1.83;;;24.30;57.50;;;;;;4947921;28;86865;-78
2022/05/21 16:44:39;;;;;;;7.57;1.80;;;24.20;59.10;;;;;;4947855;28;87066;-78
2022/05/21 16:47:06;;;;;;;3.88;1.65;;;24.00;58.70;;;;;;4948034;28;87248;-78